createdAt,value
2022-11-16T00:00:43.499Z,101041.78
2022-11-16T00:03:14.744Z,101032.34
2022-11-16T00:05:45.382Z,101036.53
2022-11-16T00:08:15.682Z,101041.56
2022-11-16T00:10:46.530Z,101041.91
2022-11-16T00:13:17.225Z,101050.47
2022-11-16T00:15:57.581Z,101041.72
2022-11-16T00:18:28.426Z,101037.13
2022-11-16T00:20:59.412Z,101050.41
2022-11-16T00:23:31.675Z,101048.31
2022-11-16T00:26:08.612Z,101042.69
2022-11-16T00:28:40.195Z,101041.44
2022-11-16T00:31:11.931Z,101035.66
2022-11-16T00:33:43.071Z,101035.59
2022-11-16T00:36:15.506Z,101041.94
2022-11-16T00:38:47.073Z,101033.78
2022-11-16T00:41:20.669Z,101040.50
2022-11-16T00:43:52.580Z,101052.84
2022-11-16T00:46:24.065Z,101048.94
2022-11-16T00:48:55.562Z,101047.84
2022-11-16T00:51:26.511Z,101059.31
2022-11-16T00:53:57.620Z,101059.59
2022-11-16T00:56:29.642Z,101059.25
2022-11-16T00:59:01.156Z,101063.25
2022-11-16T01:01:35.024Z,101063.91
2022-11-16T01:04:09.718Z,101060.84
2022-11-16T01:06:41.151Z,101058.44
2022-11-16T01:09:12.262Z,101048.97
2022-11-16T01:12:01.292Z,101043.66
2022-11-16T01:14:33.381Z,101037.06
2022-11-16T01:17:05.888Z,101043.44
2022-11-16T01:19:38.005Z,101041.84
2022-11-16T01:22:12.038Z,101034.59
2022-11-16T01:24:42.781Z,101023.72
2022-11-16T01:27:15.012Z,101017.06
2022-11-16T01:29:48.684Z,101023.34
2022-11-16T01:32:21.455Z,101028.91
2022-11-16T01:34:53.030Z,101020.72
2022-11-16T01:37:31.655Z,101012.91
2022-11-16T01:40:02.513Z,101006.75
2022-11-16T01:42:34.764Z,101021.28
2022-11-16T01:45:25.910Z,101001.88
2022-11-16T01:48:00.307Z,100991.72
2022-11-16T01:50:35.204Z,100984.91
2022-11-16T01:53:07.651Z,100987.25
2022-11-16T01:55:51.721Z,100987.13
2022-11-16T01:58:31.634Z,100982.31
2022-11-16T02:01:12.610Z,100989.78
2022-11-16T02:03:50.012Z,100982.41
2022-11-16T02:06:29.460Z,100991.97
2022-11-16T02:09:59.105Z,100990.06
2022-11-16T02:13:00.006Z,100979.66
2022-11-16T02:15:46.668Z,100980.22
2022-11-16T02:18:37.081Z,100972.03
2022-11-16T02:21:14.288Z,100967.53
2022-11-16T02:24:03.812Z,100964.94
2022-11-16T02:26:52.635Z,100967.81
2022-11-16T02:29:41.535Z,100963.03
2022-11-16T02:32:15.235Z,100968.41
2022-11-16T02:35:24.807Z,100963.38
2022-11-16T02:38:09.849Z,100953.38
2022-11-16T02:40:42.539Z,100959.63
2022-11-16T02:43:18.753Z,100956.34
2022-11-16T02:45:52.560Z,100956.88
2022-11-16T02:48:26.997Z,100957.38
2022-11-16T02:51:00.744Z,100959.84
2022-11-16T02:53:35.824Z,100956.09
2022-11-16T02:56:07.786Z,100952.75
2022-11-16T02:58:38.463Z,100939.88
2022-11-16T03:01:20.045Z,100943.59
2022-11-16T03:03:52.360Z,100949.41
2022-11-16T03:06:30.505Z,100951.41
2022-11-16T03:09:25.012Z,100942.84
2022-11-16T03:12:02.134Z,100940.41
2022-11-16T03:14:54.061Z,100922.63
2022-11-16T03:17:46.678Z,100924.09
2022-11-16T03:20:23.805Z,100923.03
2022-11-16T03:23:00.517Z,100904.34
2022-11-16T03:25:56.386Z,100895.38
2022-11-16T03:29:00.630Z,100886.53
2022-11-16T03:31:45.424Z,100891.94
2022-11-16T03:34:21.314Z,100886.38
2022-11-16T03:36:53.122Z,100877.47
2022-11-16T03:39:32.473Z,100873.34
2022-11-16T03:42:08.072Z,100884.09
2022-11-16T03:44:40.089Z,100861.88
2022-11-16T03:47:14.191Z,100865.00
2022-11-16T03:49:48.685Z,100865.41
2022-11-16T03:52:21.656Z,100871.66
2022-11-16T03:54:54.029Z,100853.75
2022-11-16T03:57:25.528Z,100855.03
2022-11-16T03:59:59.905Z,100840.94
2022-11-16T04:02:33.816Z,100835.97
2022-11-16T04:05:23.063Z,100841.56
2022-11-16T04:08:17.462Z,100838.47
2022-11-16T04:11:07.034Z,100829.13
2022-11-16T04:13:55.898Z,100816.88
2022-11-16T04:16:44.763Z,100816.91
2022-11-16T04:19:33.620Z,100808.16
2022-11-16T04:22:44.596Z,100801.94
2022-11-16T04:25:23.331Z,100792.84
2022-11-16T04:28:13.600Z,100777.84
2022-11-16T04:31:12.537Z,100778.06
2022-11-16T04:34:05.235Z,100770.38
2022-11-16T04:36:54.026Z,100769.53
2022-11-16T04:39:24.836Z,100765.78
2022-11-16T04:42:14.411Z,100758.69
2022-11-16T04:45:25.658Z,100755.81
2022-11-16T04:47:57.113Z,100751.19
2022-11-16T04:50:32.985Z,100750.56
2022-11-16T04:53:04.869Z,100738.47
2022-11-16T04:55:41.013Z,100737.22
2022-11-16T04:58:11.581Z,100744.50
2022-11-16T05:00:43.290Z,100740.75
2022-11-16T05:03:14.715Z,100739.06
2022-11-16T05:05:47.413Z,100729.91
2022-11-16T05:08:19.694Z,100719.06
2022-11-16T05:10:53.501Z,100709.06
2022-11-16T05:13:25.056Z,100716.16
2022-11-16T05:15:56.926Z,100709.06
2022-11-16T05:18:32.181Z,100711.38
2022-11-16T05:21:05.551Z,100698.44
2022-11-16T05:23:58.994Z,100696.16
2022-11-16T05:26:33.189Z,100689.91
2022-11-16T05:29:05.372Z,100687.13
2022-11-16T05:31:40.278Z,100680.84
2022-11-16T05:34:12.175Z,100682.72
2022-11-16T05:36:42.994Z,100670.56
2022-11-16T05:39:14.688Z,100674.75
2022-11-16T05:41:46.495Z,100670.56
2022-11-16T05:44:18.181Z,100668.84
2022-11-16T05:46:49.531Z,100655.34
2022-11-16T05:49:22.595Z,100668.50
2022-11-16T05:51:53.324Z,100655.59
2022-11-16T05:54:27.234Z,100652.25
2022-11-16T05:56:58.725Z,100646.59
2022-11-16T05:59:30.964Z,100648.88
2022-11-16T06:02:05.741Z,100643.63
2022-11-16T06:04:37.915Z,100640.41
2022-11-16T06:07:08.212Z,100643.91
2022-11-16T06:09:39.708Z,100644.03
2022-11-16T06:12:18.708Z,100633.09
2022-11-16T06:14:49.854Z,100638.69
2022-11-16T06:17:20.552Z,100641.25
2022-11-16T06:19:51.357Z,100630.97
2022-11-16T06:22:22.322Z,100625.22
2022-11-16T06:24:53.589Z,100624.88
2022-11-16T06:27:27.506Z,100616.19
2022-11-16T06:29:58.550Z,100626.88
2022-11-16T06:32:32.935Z,100617.00
2022-11-16T06:35:03.822Z,100624.22
2022-11-16T06:37:34.977Z,100626.00
2022-11-16T06:40:07.455Z,100629.00
2022-11-16T06:42:43.069Z,100622.75
2022-11-16T06:45:17.163Z,100624.03
2022-11-16T06:47:55.148Z,100620.53
2022-11-16T06:50:27.288Z,100619.97
2022-11-16T06:53:01.794Z,100628.56
2022-11-16T06:55:34.276Z,100624.81
2022-11-16T06:58:07.360Z,100630.47
2022-11-16T07:00:39.640Z,100635.47
2022-11-16T07:03:12.469Z,100626.97
2022-11-16T07:05:43.881Z,100629.91
2022-11-16T07:08:19.213Z,100624.28
2022-11-16T07:10:51.460Z,100627.19
2022-11-16T07:13:22.648Z,100635.31
2022-11-16T07:15:54.714Z,100637.22
2022-11-16T07:18:26.069Z,100643.50
2022-11-16T07:20:57.876Z,100638.97
2022-11-16T07:23:29.828Z,100640.88
2022-11-16T07:26:06.649Z,100646.09
2022-11-16T07:28:49.252Z,100639.00
2022-11-16T07:31:24.612Z,100650.28
2022-11-16T07:34:15.175Z,100646.09
2022-11-16T07:37:08.153Z,100652.75
2022-11-16T07:39:38.993Z,100651.13
2022-11-16T07:42:13.197Z,100646.94
2022-11-16T07:45:01.636Z,100651.50
2022-11-16T07:47:39.101Z,100659.03
2022-11-16T07:50:13.456Z,100663.63
2022-11-16T07:52:47.551Z,100665.72
2022-11-16T07:55:27.401Z,100661.53
2022-11-16T07:57:59.633Z,100658.81
2022-11-16T08:00:30.303Z,100649.41
2022-11-16T08:03:10.263Z,100658.19
2022-11-16T08:05:41.940Z,100666.09
2022-11-16T08:08:13.832Z,100671.09
2022-11-16T08:10:46.899Z,100666.94
2022-11-16T08:13:18.187Z,100663.00
2022-11-16T08:15:48.919Z,100664.47
2022-11-16T08:18:23.112Z,100659.47
2022-11-16T08:20:53.544Z,100661.31
2022-11-16T08:23:25.519Z,100659.88
2022-11-16T08:26:04.479Z,100660.31
2022-11-16T08:28:35.877Z,100675.94
2022-11-16T08:31:14.948Z,100684.47
2022-11-16T08:33:50.016Z,100679.47
2022-11-16T08:36:21.458Z,100686.13
2022-11-16T08:38:53.527Z,100690.94
2022-11-16T08:41:26.400Z,100693.84
2022-11-16T08:43:58.011Z,100693.63
2022-11-16T08:46:29.562Z,100691.97
2022-11-16T08:49:10.199Z,100686.16
2022-11-16T08:51:41.819Z,100692.16
2022-11-16T08:54:12.653Z,100693.41
2022-11-16T08:56:45.172Z,100700.69
2022-11-16T08:59:16.658Z,100703.16
2022-11-16T09:01:51.660Z,100704.44
2022-11-16T09:04:22.662Z,100709.63
2022-11-16T09:06:54.098Z,100724.84
2022-11-16T09:09:24.787Z,100732.75
2022-11-16T09:11:58.743Z,100736.69
2022-11-16T09:14:31.592Z,100739.38
2022-11-16T09:17:02.131Z,100737.31
2022-11-16T09:19:32.414Z,100744.38
2022-11-16T09:22:03.363Z,100750.63
2022-11-16T09:24:34.062Z,100755.81
2022-11-16T09:27:04.848Z,100764.34
2022-11-16T09:29:35.750Z,100763.72
2022-11-16T09:32:07.367Z,100771.81
2022-11-16T09:34:38.219Z,100775.56
2022-11-16T09:37:09.164Z,100780.56
2022-11-16T09:39:39.695Z,100775.56
2022-11-16T09:42:43.601Z,100779.47
2022-11-16T09:45:19.101Z,100784.84
2022-11-16T09:47:58.434Z,100782.16
2022-11-16T09:50:37.922Z,100790.03
2022-11-16T09:53:32.429Z,100787.53
2022-11-16T09:56:26.412Z,100787.53
2022-11-16T09:59:06.165Z,100781.03
2022-11-16T10:02:03.023Z,100784.59
2022-11-16T10:04:44.969Z,100783.31
2022-11-16T10:07:27.799Z,100784.16
2022-11-16T10:09:58.893Z,100788.50
2022-11-16T10:12:37.017Z,100794.94
2022-11-16T10:15:10.709Z,100803.25
2022-11-16T10:17:47.091Z,100797.84
2022-11-16T10:20:50.751Z,100797.41
2022-11-16T10:23:37.887Z,100791.94
2022-11-16T10:26:20.467Z,100793.19
2022-11-16T10:29:02.817Z,100796.53
2022-11-16T10:31:39.419Z,100803.22
2022-11-16T10:34:10.966Z,100803.38
2022-11-16T10:36:41.287Z,100801.47
2022-11-16T10:39:17.950Z,100814.97
2022-11-16T10:41:54.142Z,100813.94
2022-11-16T10:44:42.956Z,100814.34
2022-11-16T10:47:27.115Z,100812.66
2022-11-16T10:50:08.192Z,100811.38
2022-11-16T10:52:38.749Z,100814.25
2022-11-16T10:55:09.883Z,100828.81
2022-11-16T10:58:16.055Z,100834.66
2022-11-16T11:00:52.570Z,100849.16
2022-11-16T11:03:33.729Z,100845.41
2022-11-16T11:06:04.307Z,100860.34
2022-11-16T11:08:35.050Z,100862.88
2022-11-16T11:11:25.505Z,100864.16
2022-11-16T11:14:11.614Z,100875.00
2022-11-16T11:16:42.740Z,100875.41
2022-11-16T11:19:39.277Z,100882.31
2022-11-16T11:22:15.724Z,100884.56
2022-11-16T11:24:50.303Z,100882.06
2022-11-16T11:27:26.354Z,100882.44
2022-11-16T11:29:59.651Z,100886.19
2022-11-16T11:32:36.735Z,100888.69
2022-11-16T11:35:08.116Z,100899.88
2022-11-16T11:37:40.705Z,100905.50
2022-11-16T11:40:11.469Z,100922.75
2022-11-16T11:42:43.950Z,100920.81
2022-11-16T11:45:14.846Z,100927.25
2022-11-16T11:47:58.434Z,100931.38
2022-11-16T11:50:41.099Z,100938.44
2022-11-16T11:53:44.746Z,100927.25
2022-11-16T11:56:15.872Z,100928.03
2022-11-16T11:58:47.732Z,100928.66
2022-11-16T12:01:42.691Z,100937.16
2022-11-16T12:04:31.759Z,100908.59
2022-11-16T12:07:10.996Z,100915.28
2022-11-16T12:09:51.089Z,100922.75
2022-11-16T12:12:47.751Z,100916.94
2022-11-16T12:15:43.150Z,100920.31
2022-11-16T12:18:32.010Z,100933.19
2022-11-16T12:21:31.539Z,100941.81
2022-11-16T12:24:40.087Z,100943.00
2022-11-16T12:27:37.120Z,100952.38
2022-11-16T12:30:20.927Z,100962.78
2022-11-16T12:33:33.246Z,100966.91
2022-11-16T12:36:16.094Z,100966.00
2022-11-16T12:39:04.489Z,100966.06
2022-11-16T12:41:52.096Z,100977.22
2022-11-16T12:44:47.055Z,100982.50
2022-11-16T12:47:35.539Z,100991.00
2022-11-16T12:50:42.258Z,100997.88
2022-11-16T12:53:24.744Z,101001.75
2022-11-16T12:56:25.545Z,101005.91
2022-11-16T12:59:18.764Z,101002.44
2022-11-16T13:01:48.944Z,101005.16
2022-11-16T13:04:23.396Z,100998.06
2022-11-16T13:06:58.902Z,100991.63
2022-11-16T13:09:33.697Z,100989.69
2022-11-16T13:12:07.775Z,100971.41
2022-11-16T13:14:49.866Z,100968.06
2022-11-16T13:17:35.784Z,100969.75
2022-11-16T13:20:34.786Z,100969.34
2022-11-16T13:23:48.109Z,100968.13
2022-11-16T13:26:26.219Z,100978.13
2022-11-16T13:29:16.095Z,100981.84
2022-11-16T13:31:58.923Z,100996.34
2022-11-16T13:34:34.092Z,101007.16
2022-11-16T13:37:40.661Z,101021.75
2022-11-16T13:40:25.249Z,101038.75
2022-11-16T13:43:14.367Z,101043.78
2022-11-16T13:45:51.286Z,101022.13
2022-11-16T13:48:22.882Z,101040.16
2022-11-16T13:50:58.563Z,101055.34
2022-11-16T13:54:38.046Z,101052.38
2022-11-16T13:56:29.011Z,101043.50
2022-11-16T13:59:00.096Z,101042.03
2022-11-16T14:02:22.716Z,101017.88
2022-11-16T14:05:20.741Z,101003.72
2022-11-16T14:07:56.059Z,100997.88
2022-11-16T14:10:52.459Z,100983.13
2022-11-16T14:13:48.240Z,100985.81
2022-11-16T14:16:22.424Z,100974.34
2022-11-16T14:18:58.084Z,100971.00
2022-11-16T14:21:50.370Z,100964.41
2022-11-16T14:24:35.094Z,100957.88
2022-11-16T14:27:17.038Z,100945.38
2022-11-16T14:29:57.258Z,100944.09
2022-11-16T14:32:42.453Z,100937.00
2022-11-16T14:35:40.528Z,100935.81
2022-11-16T14:38:31.546Z,100932.91
2022-11-16T14:41:04.981Z,100923.25
2022-11-16T14:43:48.964Z,100917.44
2022-11-16T14:46:24.940Z,100922.22
2022-11-16T14:49:00.889Z,100928.19
2022-11-16T14:51:34.500Z,100924.66
2022-11-16T14:54:12.831Z,100928.72
2022-11-16T14:57:04.021Z,100932.75
2022-11-16T14:59:34.890Z,100935.16
2022-11-16T15:02:28.649Z,100940.19
2022-11-16T15:04:59.239Z,100943.47
2022-11-16T15:07:31.048Z,100940.13
2022-11-16T15:10:02.410Z,100943.84
2022-11-16T15:12:44.090Z,100941.78
2022-11-16T15:15:17.931Z,100946.16
2022-11-16T15:18:08.461Z,100939.25
2022-11-16T15:20:45.640Z,100940.13
2022-11-16T15:23:17.258Z,100933.59
2022-11-16T15:25:56.965Z,100924.66
2022-11-16T15:28:30.251Z,100925.81
2022-11-16T15:31:02.901Z,100926.38
2022-11-16T15:33:43.279Z,100932.34
2022-11-16T15:36:50.072Z,100936.44
2022-11-16T15:39:26.413Z,100935.22
2022-11-16T15:42:03.273Z,100928.97
2022-11-16T15:44:34.813Z,100920.59
2022-11-16T15:47:06.021Z,100921.47
2022-11-16T15:49:40.367Z,100919.50
2022-11-16T15:52:12.143Z,100922.38
2022-11-16T15:55:01.632Z,100919.69
2022-11-16T15:57:32.790Z,100917.19
2022-11-16T16:00:04.408Z,100919.59
2022-11-16T16:02:35.183Z,100917.41
2022-11-16T16:05:07.048Z,100918.28
2022-11-16T16:07:40.635Z,100917.63
2022-11-16T16:10:20.536Z,100913.25
2022-11-16T16:13:03.676Z,100912.41
2022-11-16T16:15:37.494Z,100908.59
2022-11-16T16:18:37.145Z,100903.56
2022-11-16T16:21:07.850Z,100908.31
2022-11-16T16:23:54.670Z,100913.06
2022-11-16T16:26:25.560Z,100915.75
2022-11-16T16:28:56.918Z,100918.34
2022-11-16T16:31:30.776Z,100918.72
2022-11-16T16:34:12.481Z,100927.00
2022-11-16T16:36:44.661Z,100913.69
2022-11-16T16:39:15.491Z,100915.56
2022-11-16T16:41:45.977Z,100915.19
2022-11-16T16:44:17.373Z,100911.84
2022-11-16T16:46:48.063Z,100923.00
2022-11-16T16:49:18.672Z,100904.13
2022-11-16T16:51:48.897Z,100906.16
2022-11-16T16:54:19.292Z,100902.81
2022-11-16T16:56:49.693Z,100902.59
2022-11-16T16:59:20.805Z,100888.28
2022-11-16T17:01:52.682Z,100877.28
2022-11-16T17:04:22.937Z,100863.34
2022-11-16T17:06:54.573Z,100862.91
2022-11-16T17:09:26.281Z,100856.28
2022-11-16T17:11:56.955Z,100849.41
2022-11-16T17:14:27.541Z,100840.03
2022-11-16T17:16:59.650Z,100839.16
2022-11-16T17:19:30.891Z,100837.03
2022-11-16T17:22:01.955Z,100836.47
2022-11-16T17:24:32.430Z,100834.63
2022-11-16T17:27:03.079Z,100827.72
2022-11-16T17:29:34.817Z,100830.41
2022-11-16T17:32:09.607Z,100830.41
2022-11-16T17:34:48.805Z,100831.13
2022-11-16T17:37:28.591Z,100843.59
2022-11-16T17:40:00.815Z,100848.06
2022-11-16T17:42:39.175Z,100849.28
2022-11-16T17:45:39.956Z,100846.00
2022-11-16T17:48:38.201Z,100843.13
2022-11-16T17:51:14.958Z,100846.75
2022-11-16T17:54:01.493Z,100841.91
2022-11-16T17:56:47.706Z,100840.53
2022-11-16T17:59:31.451Z,100843.41
2022-11-16T18:02:04.153Z,100843.31
2022-11-16T18:04:48.233Z,100837.06
2022-11-16T18:07:29.354Z,100840.03
2022-11-16T18:10:15.003Z,100829.53
2022-11-16T18:13:10.422Z,100826.19
2022-11-16T18:15:48.578Z,100819.94
2022-11-16T18:18:25.390Z,100813.25
2022-11-16T18:20:56.942Z,100811.56
2022-11-16T18:23:28.940Z,100820.66
2022-11-16T18:26:05.861Z,100800.13
2022-11-16T18:28:37.150Z,100804.84
2022-11-16T18:31:09.821Z,100803.19
2022-11-16T18:33:40.142Z,100803.19
2022-11-16T18:36:11.488Z,100787.94
2022-11-16T18:38:41.893Z,100792.31
2022-11-16T18:41:15.260Z,100781.91
2022-11-16T18:44:03.006Z,100779.00
2022-11-16T18:46:34.815Z,100772.34
2022-11-16T18:49:05.633Z,100768.97
2022-11-16T18:51:36.515Z,100775.41
2022-11-16T18:54:06.868Z,100767.63
2022-11-16T18:56:37.296Z,100770.34
2022-11-16T18:59:07.710Z,100775.06
2022-11-16T19:01:38.205Z,100771.06
2022-11-16T19:04:09.801Z,100766.69
2022-11-16T19:06:41.145Z,100773.56
2022-11-16T19:09:12.295Z,100767.06
2022-11-16T19:11:42.917Z,100760.16
2022-11-16T19:14:15.619Z,100762.84
2022-11-16T19:16:54.169Z,100774.50
2022-11-16T19:19:28.669Z,100775.66
2022-11-16T19:21:59.297Z,100772.31
2022-11-16T19:24:30.052Z,100776.88
2022-11-16T19:27:00.591Z,100777.25
2022-11-16T19:29:31.372Z,100762.75
2022-11-16T19:32:02.144Z,100760.22
2022-11-16T19:34:34.254Z,100769.69
2022-11-16T19:37:07.515Z,100775.94
2022-11-16T19:39:38.085Z,100772.59
2022-11-16T19:42:08.635Z,100770.56
2022-11-16T19:44:39.382Z,100770.06
2022-11-16T19:47:09.609Z,100749.34
2022-11-16T19:49:40.127Z,100751.41
2022-11-16T19:52:11.351Z,100747.03
2022-11-16T19:54:42.195Z,100746.84
2022-11-16T19:57:13.829Z,100750.53
2022-11-16T19:59:44.701Z,100750.53
2022-11-16T20:02:15.472Z,100749.72
2022-11-16T20:04:46.235Z,100760.50
2022-11-16T20:07:19.047Z,100743.69
2022-11-16T20:09:53.838Z,100741.34
2022-11-16T20:12:24.433Z,100752.13
2022-11-16T20:14:57.288Z,100757.50
2022-11-16T20:17:27.495Z,100762.91
2022-11-16T20:20:01.649Z,100769.09
2022-11-16T20:22:32.940Z,100772.16
2022-11-16T20:25:03.426Z,100770.31
2022-11-16T20:27:34.393Z,100775.69
2022-11-16T20:30:09.917Z,100774.38
2022-11-16T20:32:40.714Z,100772.16
2022-11-16T20:35:13.690Z,100764.44
2022-11-16T20:37:47.114Z,100765.66
2022-11-16T20:40:20.765Z,100771.03
2022-11-16T20:42:51.882Z,100769.34
2022-11-16T20:45:23.353Z,100776.78
2022-11-16T20:47:53.827Z,100767.69
2022-11-16T20:50:24.515Z,100762.47
2022-11-16T20:52:58.756Z,100775.09
2022-11-16T20:55:29.224Z,100776.13
2022-11-16T20:57:59.769Z,100784.19
2022-11-16T21:00:30.480Z,100792.44
2022-11-16T21:03:01.532Z,100809.47
2022-11-16T21:05:32.427Z,100809.25
2022-11-16T21:08:03.006Z,100804.53
2022-11-16T21:10:37.232Z,100801.38
2022-11-16T21:13:26.693Z,100805.91
2022-11-16T21:16:01.678Z,100820.59
2022-11-16T21:18:32.545Z,100833.03
2022-11-16T21:21:08.503Z,100830.66
2022-11-16T21:23:42.984Z,100832.50
2022-11-16T21:26:15.650Z,100845.13
2022-11-16T21:28:46.446Z,100846.16
2022-11-16T21:31:22.579Z,100866.69
2022-11-16T21:33:53.432Z,100874.75
2022-11-16T21:36:30.961Z,100875.47
2022-11-16T21:39:01.617Z,100887.91
2022-11-16T21:41:32.708Z,100894.63
2022-11-16T21:44:03.833Z,100895.28
2022-11-16T21:46:34.345Z,100891.28
2022-11-16T21:49:05.526Z,100902.03
2022-11-16T21:51:35.979Z,100896.66
2022-11-16T21:54:06.390Z,100889.59
2022-11-16T21:56:37.175Z,100885.22
2022-11-16T21:59:08.243Z,100877.13
2022-11-16T22:01:59.063Z,100885.22
2022-11-16T22:04:48.146Z,100880.84
2022-11-16T22:07:34.654Z,100878.16
2022-11-16T22:10:12.872Z,100884.56
2022-11-16T22:12:43.866Z,100896.53
2022-11-16T22:15:14.619Z,100900.03
2022-11-16T22:17:45.855Z,100900.25
2022-11-16T22:20:17.123Z,100903.75
2022-11-16T22:22:48.510Z,100905.78
2022-11-16T22:25:19.529Z,100900.34
2022-11-16T22:28:19.132Z,100898.34
2022-11-16T22:30:40.776Z,100892.94
2022-11-16T22:33:11.242Z,100892.59
2022-11-16T22:35:42.922Z,100884.69
2022-11-16T22:38:14.601Z,100887.56
2022-11-16T22:40:53.751Z,100888.22
2022-11-16T22:43:29.595Z,100873.09
2022-11-16T22:46:01.636Z,100873.44
2022-11-16T22:48:38.180Z,100868.72
2022-11-16T22:51:26.782Z,100869.06
2022-11-16T22:54:08.123Z,100874.75
2022-11-16T22:56:39.176Z,100878.66
2022-11-16T22:59:10.771Z,100876.78
2022-11-16T23:01:41.477Z,100885.88
2022-11-16T23:04:11.959Z,100889.25
2022-11-16T23:06:42.939Z,100900.84
2022-11-16T23:09:14.015Z,100900.84
2022-11-16T23:12:03.469Z,100901.38
2022-11-16T23:14:52.596Z,100900.84
2022-11-16T23:17:23.593Z,100909.59
2022-11-16T23:20:17.294Z,100920.38
2022-11-16T23:23:07.826Z,100919.19
2022-11-16T23:25:57.069Z,100916.16
2022-11-16T23:28:27.622Z,100924.25
2022-11-16T23:30:57.990Z,100927.94
2022-11-16T23:33:46.605Z,100927.25
2022-11-16T23:36:17.331Z,100939.69
2022-11-16T23:38:47.878Z,100938.84
2022-11-16T23:41:36.961Z,100939.69
2022-11-16T23:44:07.766Z,100939.34
2022-11-16T23:46:38.671Z,100944.22
2022-11-16T23:49:09.856Z,100942.19
2022-11-16T23:51:40.937Z,100939.00
2022-11-16T23:54:11.662Z,100951.78
2022-11-16T23:56:42.216Z,100940.66
2022-11-16T23:59:21.964Z,100949.06
